Time;durP1;ratioP1;P1;durP2;ratioP2;P2;SDS_P1;SDS_P2;PMS_P1;PMS_P2;Temp;Humidity;BMP_temperature;BMP_pressure;BME280_temperature;BME280_humidity;BME280_pressure;Samples;Min_cycle;Max_cycle;Signal;HPM_P1;HPM_P2
2022/05/11 00:01:26;;;;;;;7.55;6.72;;;15.50;99.90;;;;;;5072356;28;20047;-81
2022/05/11 00:03:53;;;;;;;7.15;6.47;;;15.50;99.90;;;;;;5051626;28;20037;-80
2022/05/11 00:06:19;;;;;;;7.82;6.97;;;15.50;99.90;;;;;;5074866;28;20029;-78
2022/05/11 00:08:45;;;;;;;8.32;6.88;;;15.50;99.90;;;;;;5052122;28;20053;-79
2022/05/11 00:11:12;;;;;;;13.27;7.10;;;15.60;99.90;;;;;;5073902;28;20496;-80
2022/05/11 00:13:38;;;;;;;8.70;6.68;;;15.60;99.90;;;;;;5075801;28;20028;-79
2022/05/11 00:16:04;;;;;;;10.25;6.70;;;15.60;99.90;;;;;;5070085;28;20067;-79
2022/05/11 00:18:30;;;;;;;8.98;7.90;;;15.60;99.90;;;;;;5075736;28;20029;-79
2022/05/11 00:20:57;;;;;;;7.75;6.95;;;15.70;99.90;;;;;;5073999;28;20389;-79
2022/05/11 00:23:23;;;;;;;7.53;6.88;;;15.70;99.90;;;;;;5074003;28;20036;-77
2022/05/11 00:25:50;;;;;;;7.10;6.38;;;15.70;99.90;;;;;;5072952;28;20032;-79
2022/05/11 00:28:16;;;;;;;8.90;6.72;;;15.70;99.90;;;;;;5051910;28;20568;-79
2022/05/11 00:30:43;;;;;;;12.15;7.88;;;15.70;99.90;;;;;;5072562;28;20039;-80
2022/05/11 00:33:13;;;;;;;9.85;7.55;;;15.70;99.90;;;;;;5065921;28;20045;-78
2022/05/11 00:35:40;;;;;;;10.30;7.40;;;15.70;99.90;;;;;;5074342;28;20055;-79
2022/05/11 00:38:07;;;;;;;10.52;7.68;;;15.70;99.90;;;;;;5038657;28;20124;-79
2022/05/11 00:40:42;;;;;;;10.95;6.72;;;15.70;99.90;;;;;;5029062;28;20049;-79
2022/05/11 00:43:09;;;;;;;10.73;8.23;;;15.70;99.90;;;;;;5048463;28;20499;-78
2022/05/11 00:45:38;;;;;;;7.85;7.05;;;15.70;99.90;;;;;;5051507;28;20398;-79
2022/05/11 00:50:53;;;;;;;9.85;7.97;;;15.70;99.90;;;;;;5031650;28;20072;-79
2022/05/11 00:53:20;;;;;;;9.40;8.05;;;15.60;99.90;;;;;;5050967;28;20048;-79
2022/05/11 00:56:05;;;;;;;9.07;8.10;;;15.60;99.90;;;;;;5063558;28;20037;-80
2022/05/11 00:58:37;;;;;;;8.88;7.95;;;15.50;99.90;;;;;;5048190;28;20036;-79
2022/05/11 01:01:04;;;;;;;8.18;7.40;;;15.50;99.90;;;;;;5048848;28;20033;-78
2022/05/11 01:03:36;;;;;;;10.07;8.85;;;15.50;99.90;;;;;;5050838;28;20025;-78
2022/05/11 01:06:02;;;;;;;9.95;7.35;;;15.40;99.90;;;;;;5031895;28;20029;-79
2022/05/11 01:08:31;;;;;;;9.05;7.57;;;15.40;99.90;;;;;;5044678;28;20045;-79
2022/05/11 01:11:01;;;;;;;10.27;8.07;;;15.30;99.90;;;;;;5031517;28;20032;-80
2022/05/11 01:13:30;;;;;;;10.20;8.27;;;15.30;99.90;;;;;;5053114;28;20045;-80
2022/05/11 01:15:58;;;;;;;10.48;9.02;;;15.30;99.90;;;;;;5029094;28;20044;-79
2022/05/11 01:18:25;;;;;;;11.90;8.00;;;15.30;99.90;;;;;;5066540;28;20033;-81
2022/05/11 01:20:52;;;;;;;9.27;7.95;;;15.20;99.90;;;;;;5037591;28;20029;-78
2022/05/11 01:23:35;;;;;;;7.20;6.60;;;15.20;99.90;;;;;;5053936;28;20044;-81
2022/05/11 01:26:03;;;;;;;9.05;8.18;;;15.10;99.90;;;;;;5049588;28;20041;-79
2022/05/11 01:28:29;;;;;;;7.95;6.95;;;15.10;99.90;;;;;;5058139;28;20474;-78
2022/05/11 01:31:05;;;;;;;8.43;7.57;;;15.10;99.90;;;;;;5052123;28;20443;-78
2022/05/11 01:33:33;;;;;;;9.05;8.18;;;15.10;99.90;;;;;;5050208;28;20045;-79
2022/05/11 01:36:30;;;;;;;8.55;7.70;;;15.00;99.90;;;;;;5053178;28;20398;-80
2022/05/11 01:39:02;;;;;;;9.82;8.82;;;15.00;99.90;;;;;;5050390;28;20056;-80
2022/05/11 01:41:43;;;;;;;10.10;9.02;;;15.00;99.90;;;;;;5057213;28;20045;-80
2022/05/11 01:44:15;;;;;;;8.52;7.72;;;15.00;99.90;;;;;;5057207;28;20037;-82
2022/05/11 01:46:45;;;;;;;10.00;7.85;;;15.00;99.90;;;;;;5050556;28;20470;-79
2022/05/11 01:49:11;;;;;;;8.70;7.80;;;15.00;99.90;;;;;;5059946;28;20025;-80
2022/05/11 01:51:38;;;;;;;13.02;9.15;;;14.90;99.90;;;;;;5064831;28;20032;-79
2022/05/11 01:54:04;;;;;;;10.57;8.43;;;14.90;99.90;;;;;;5040802;28;20036;-79
2022/05/11 01:56:31;;;;;;;12.15;8.18;;;14.90;99.90;;;;;;5075459;28;20047;-80
2022/05/11 01:58:57;;;;;;;10.65;9.48;;;14.90;99.90;;;;;;5037233;28;20060;-80
2022/05/11 02:01:27;;;;;;;9.60;8.20;;;14.90;99.90;;;;;;5053158;28;20390;-79
2022/05/11 02:03:54;;;;;;;11.27;8.98;;;14.90;99.90;;;;;;5064517;28;20032;-79
2022/05/11 02:09:06;;;;;;;9.70;8.60;;;14.80;99.90;;;;;;5049124;28;20478;-78
2022/05/11 02:11:32;;;;;;;11.52;9.05;;;14.80;99.90;;;;;;5030107;28;20045;-79
2022/05/11 02:13:59;;;;;;;9.43;8.52;;;14.80;99.90;;;;;;5054377;28;20033;-78
2022/05/11 02:16:26;;;;;;;13.82;8.50;;;14.80;99.90;;;;;;5053013;28;20099;-78
2022/05/11 02:18:55;;;;;;;9.50;8.63;;;14.80;99.90;;;;;;5054347;28;20469;-79
2022/05/11 02:21:22;;;;;;;11.68;10.45;;;14.80;99.90;;;;;;5060146;28;20029;-79
2022/05/11 02:23:50;;;;;;;9.40;8.60;;;14.70;99.90;;;;;;5054078;28;20029;-79
2022/05/11 02:26:19;;;;;;;10.65;8.70;;;14.70;99.90;;;;;;5053927;28;20052;-78
2022/05/11 02:28:48;;;;;;;9.02;8.20;;;14.70;99.90;;;;;;5054799;28;20025;-79
2022/05/11 02:31:14;;;;;;;10.35;9.18;;;14.70;99.90;;;;;;5058293;28;20444;-77
2022/05/11 02:33:41;;;;;;;11.15;9.25;;;14.60;99.90;;;;;;5048695;28;20502;-78
2022/05/11 02:36:07;;;;;;;9.20;8.40;;;14.60;99.90;;;;;;5035126;28;20124;-78
2022/05/11 02:38:33;;;;;;;11.23;9.77;;;14.60;99.90;;;;;;5070507;28;20486;-78
2022/05/11 02:41:00;;;;;;;10.20;9.40;;;14.60;99.90;;;;;;5050454;28;20067;-78
2022/05/11 02:43:26;;;;;;;8.60;7.80;;;14.60;99.90;;;;;;5067872;28;20037;-78
2022/05/11 02:45:53;;;;;;;10.18;8.93;;;14.60;99.90;;;;;;5070229;28;20025;-78
2022/05/11 02:48:22;;;;;;;16.45;9.40;;;14.50;99.90;;;;;;5073177;28;20039;-78
2022/05/11 02:50:52;;;;;;;11.32;9.02;;;14.50;99.90;;;;;;5071086;28;20028;-79
2022/05/11 02:53:19;;;;;;;11.20;10.10;;;14.50;99.90;;;;;;5067395;28;20025;-79
2022/05/11 02:55:51;;;;;;;12.23;9.00;;;14.40;99.90;;;;;;5072994;28;20048;-79
2022/05/11 02:58:20;;;;;;;10.80;9.80;;;14.40;99.90;;;;;;5072412;28;20044;-78
2022/05/11 03:00:49;;;;;;;10.80;9.80;;;14.40;99.90;;;;;;5071104;28;20040;-78
2022/05/11 03:03:16;;;;;;;10.57;9.52;;;14.40;99.90;;;;;;5072330;28;20063;-78
2022/05/11 03:05:44;;;;;;;10.77;9.77;;;14.30;99.90;;;;;;5072479;28;20384;-78
2022/05/11 03:08:10;;;;;;;9.48;8.52;;;14.40;99.90;;;;;;5072101;28;20492;-78
2022/05/11 03:10:39;;;;;;;9.43;8.60;;;14.40;99.90;;;;;;5067180;28;20031;-78
2022/05/11 03:13:06;;;;;;;9.77;8.82;;;14.40;99.90;;;;;;5072206;28;20041;-78
2022/05/11 03:15:33;;;;;;;9.38;8.50;;;14.30;99.90;;;;;;5072603;28;20062;-78
2022/05/11 03:17:59;;;;;;;9.30;8.43;;;14.40;99.90;;;;;;5071796;28;20029;-78
2022/05/11 03:20:26;;;;;;;9.95;9.05;;;14.40;99.90;;;;;;5070861;28;20048;-78
2022/05/11 03:22:54;;;;;;;10.55;9.45;;;14.40;99.90;;;;;;5068417;28;20032;-78
2022/05/11 03:25:21;;;;;;;11.68;8.95;;;14.50;99.90;;;;;;5067580;28;20036;-79
2022/05/11 03:27:48;;;;;;;8.70;7.90;;;14.50;99.90;;;;;;5067575;28;20036;-79
2022/05/11 03:30:15;;;;;;;11.55;8.60;;;14.50;99.90;;;;;;5072704;28;20040;-78
2022/05/11 03:35:26;;;;;;;10.35;8.65;;;14.50;99.90;;;;;;5071350;28;20047;-78
2022/05/11 03:37:52;;;;;;;10.20;8.48;;;14.50;99.90;;;;;;5071660;28;20084;-79
2022/05/11 03:40:19;;;;;;;9.13;8.07;;;14.40;99.90;;;;;;5070170;28;20033;-78
2022/05/11 03:42:45;;;;;;;10.90;8.55;;;14.40;99.90;;;;;;5072120;28;20040;-79
2022/05/11 03:45:21;;;;;;;12.18;9.90;;;14.30;99.90;;;;;;5065419;28;20025;-77
2022/05/11 03:47:48;;;;;;;10.77;9.55;;;14.30;99.90;;;;;;5071406;28;20021;-78
2022/05/11 03:50:17;;;;;;;10.63;8.60;;;14.30;99.90;;;;;;5069948;28;20033;-78
2022/05/11 03:52:43;;;;;;;12.82;9.68;;;14.30;99.90;;;;;;5070094;28;20028;-78
2022/05/11 03:55:11;;;;;;;10.68;8.60;;;14.30;99.90;;;;;;5053186;28;20127;-78
2022/05/11 03:57:38;;;;;;;10.82;8.57;;;14.20;99.90;;;;;;5071555;28;20036;-78
2022/05/11 04:00:12;;;;;;;9.57;8.63;;;14.30;99.90;;;;;;5069656;28;20028;-78
2022/05/11 04:02:39;;;;;;;7.70;7.00;;;14.20;99.90;;;;;;5071921;28;20393;-79
2022/05/11 04:05:07;;;;;;;9.52;8.52;;;14.20;99.90;;;;;;5053113;28;20044;-79
2022/05/11 04:07:33;;;;;;;9.73;8.70;;;14.20;99.90;;;;;;5070419;28;20033;-79
2022/05/11 04:09:59;;;;;;;9.65;8.73;;;14.10;99.90;;;;;;5070027;28;20033;-78
2022/05/11 04:12:29;;;;;;;10.13;9.10;;;14.10;99.90;;;;;;5071390;28;20051;-78
2022/05/11 04:14:56;;;;;;;8.82;7.90;;;14.20;99.90;;;;;;5071872;28;20047;-78
2022/05/11 04:17:23;;;;;;;16.73;8.32;;;14.10;99.90;;;;;;5070999;28;20017;-78
2022/05/11 04:19:49;;;;;;;11.23;8.88;;;14.10;99.90;;;;;;5070560;28;20035;-78
2022/05/11 04:22:15;;;;;;;9.63;8.75;;;14.10;99.90;;;;;;5051931;28;20044;-77
2022/05/11 04:24:41;;;;;;;9.23;8.32;;;14.10;99.90;;;;;;5074662;28;20453;-78
2022/05/11 04:27:08;;;;;;;9.75;8.77;;;14.10;99.90;;;;;;5068711;28;20029;-77
2022/05/11 04:29:38;;;;;;;8.65;7.75;;;14.20;99.90;;;;;;5067344;28;20051;-77
2022/05/11 04:32:05;;;;;;;13.63;9.48;;;14.20;99.90;;;;;;5070954;28;20032;-77
2022/05/11 04:34:31;;;;;;;8.60;7.78;;;14.30;99.90;;;;;;5071024;28;20396;-78
2022/05/11 04:36:57;;;;;;;9.02;7.82;;;14.20;99.90;;;;;;5053134;28;20028;-79
2022/05/11 04:39:24;;;;;;;9.10;8.25;;;14.30;99.90;;;;;;5064390;28;20048;-78
2022/05/11 04:41:50;;;;;;;12.40;9.10;;;14.30;99.90;;;;;;5052752;28;20037;-78
2022/05/11 04:44:16;;;;;;;7.85;7.20;;;14.30;99.90;;;;;;5068207;28;20369;-78
2022/05/11 04:46:43;;;;;;;9.85;8.70;;;14.40;99.90;;;;;;5067676;28;20371;-76
2022/05/11 04:49:42;;;;;;;8.55;7.68;;;14.40;99.90;;;;;;5069885;28;20020;-77
2022/05/11 04:52:08;;;;;;;10.63;9.43;;;14.40;99.90;;;;;;5063530;28;20047;-76
2022/05/11 04:54:39;;;;;;;11.40;8.75;;;14.40;99.90;;;;;;5071831;28;20032;-76
2022/05/11 04:57:06;;;;;;;8.70;7.85;;;14.50;99.90;;;;;;5069747;28;20036;-77
2022/05/11 04:59:33;;;;;;;8.35;7.65;;;14.60;99.90;;;;;;5050017;28;20041;-77
2022/05/11 05:02:00;;;;;;;9.38;8.13;;;14.70;99.90;;;;;;5074513;28;20024;-77
2022/05/11 05:04:28;;;;;;;11.27;8.18;;;14.90;99.90;;;;;;5075500;28;20041;-77
2022/05/11 05:06:54;;;;;;;7.68;6.95;;;16.00;99.90;;;;;;5056332;28;20020;-80
2022/05/11 05:09:21;;;;;;;8.35;5.18;;;17.90;99.90;;;;;;5066453;28;20386;-77
2022/05/11 05:11:47;;;;;;;8.13;6.22;;;19.30;99.90;;;;;;5053727;28;20037;-78
2022/05/11 05:14:13;;;;;;;6.90;5.60;;;20.30;95.80;;;;;;5070143;28;20029;-78
2022/05/11 05:16:40;;;;;;;7.15;5.93;;;21.00;93.60;;;;;;5075171;28;20033;-78
2022/05/11 05:19:06;;;;;;;6.53;5.57;;;20.90;91.80;;;;;;5072388;28;20036;-78
2022/05/11 05:21:33;;;;;;;6.35;5.75;;;20.40;92.50;;;;;;5070571;28;20388;-78
2022/05/11 05:24:00;;;;;;;9.35;5.40;;;20.20;92.80;;;;;;5066550;28;20421;-79
2022/05/11 05:26:26;;;;;;;6.05;5.03;;;21.00;92.10;;;;;;5049518;28;20028;-78
2022/05/11 05:31:38;;;;;;;5.43;4.93;;;22.70;84.70;;;;;;5074454;28;20037;-77
2022/05/11 05:34:04;;;;;;;8.27;5.05;;;22.60;81.90;;;;;;5068600;28;20041;-76
2022/05/11 05:36:33;;;;;;;5.55;5.03;;;23.00;80.90;;;;;;5074090;28;20470;-79
2022/05/11 05:38:59;;;;;;;5.65;5.13;;;23.50;77.70;;;;;;5072627;28;20072;-80
2022/05/11 05:41:27;;;;;;;10.23;4.85;;;23.90;76.20;;;;;;5073719;28;20063;-79
2022/05/11 05:43:54;;;;;;;6.05;5.03;;;24.00;74.50;;;;;;5068286;28;20036;-81
2022/05/11 05:46:21;;;;;;;5.32;4.82;;;24.30;74.50;;;;;;5065554;28;20032;-81
2022/05/11 05:48:47;;;;;;;5.47;4.63;;;24.00;72.70;;;;;;5063819;28;20033;-80
2022/05/11 05:51:16;;;;;;;5.85;4.45;;;24.70;71.90;;;;;;5053865;28;20033;-81
2022/05/11 05:53:42;;;;;;;5.77;4.37;;;24.80;71.20;;;;;;5073771;28;20389;-80
2022/05/11 05:56:09;;;;;;;4.65;4.15;;;24.60;70.60;;;;;;5038167;28;20047;-81
2022/05/11 05:58:36;;;;;;;6.82;5.07;;;24.50;70.90;;;;;;5059043;28;20037;-81
2022/05/11 06:01:03;;;;;;;6.10;5.10;;;24.50;71.20;;;;;;5053185;28;20029;-81
2022/05/11 06:03:33;;;;;;;4.57;4.18;;;24.50;69.70;;;;;;5031068;28;20041;-79
2022/05/11 06:05:59;;;;;;;6.93;4.72;;;24.30;69.90;;;;;;5066446;28;20032;-79
2022/05/11 06:08:25;;;;;;;6.35;5.30;;;25.00;67.90;;;;;;5070644;28;20040;-79
2022/05/11 06:10:54;;;;;;;5.28;4.65;;;25.10;68.40;;;;;;5053659;28;20025;-86
2022/05/11 06:13:22;;;;;;;6.70;4.30;;;25.00;67.40;;;;;;5053598;28;20055;-79
2022/05/11 06:15:55;;;;;;;5.47;4.47;;;24.50;69.10;;;;;;5067182;28;20037;-81
2022/05/11 06:18:23;;;;;;;5.20;4.65;;;24.60;68.20;;;;;;5050991;28;20044;-80
2022/05/11 06:20:51;;;;;;;5.45;4.15;;;25.20;68.50;;;;;;5052922;28;20048;-77
2022/05/11 06:23:19;;;;;;;6.07;4.15;;;25.30;66.80;;;;;;5046482;28;20045;-76
2022/05/11 06:25:49;;;;;;;4.95;3.95;;;25.20;65.90;;;;;;5069146;28;20384;-80
2022/05/11 06:28:16;;;;;;;7.03;4.13;;;25.60;65.90;;;;;;5050851;28;20218;-79
2022/05/11 06:30:42;;;;;;;5.03;4.45;;;25.70;65.30;;;;;;5064257;28;20028;-79
2022/05/11 06:33:08;;;;;;;3.97;3.58;;;25.70;65.40;;;;;;5072301;28;20043;-79
2022/05/11 06:35:34;;;;;;;4.97;3.50;;;25.60;65.10;;;;;;5067788;28;20044;-78
2022/05/11 06:38:05;;;;;;;5.13;3.55;;;25.70;64.10;;;;;;5071799;28;20049;-78
2022/05/11 06:40:32;;;;;;;4.25;3.00;;;25.50;64.10;;;;;;5071238;28;20027;-78
2022/05/11 06:43:01;;;;;;;4.68;3.92;;;25.60;64.30;;;;;;5071782;28;20040;-78
2022/05/11 06:45:31;;;;;;;4.28;3.42;;;25.40;63.20;;;;;;5072444;28;20032;-78
2022/05/11 06:47:57;;;;;;;4.18;3.30;;;25.40;64.40;;;;;;5053692;28;20091;-77
2022/05/11 06:50:26;;;;;;;3.70;3.17;;;25.80;63.10;;;;;;5070659;28;20381;-77
2022/05/11 06:52:53;;;;;;;3.55;2.83;;;25.40;63.20;;;;;;5071172;28;20036;-79
2022/05/11 07:00:50;;;;;;;3.08;2.70;;;25.30;62.10;;;;;;5050711;28;20044;-76
2022/05/11 07:03:16;;;;;;;6.05;4.03;;;24.90;63.50;;;;;;5052488;28;20040;-77
2022/05/11 07:05:43;;;;;;;3.70;2.85;;;25.00;64.00;;;;;;5041409;28;20037;-77
2022/05/11 07:08:10;;;;;;;4.32;3.05;;;25.80;62.90;;;;;;5035302;28;20548;-77
2022/05/11 07:10:39;;;;;;;3.17;2.72;;;26.00;61.90;;;;;;5062608;28;20516;-77
2022/05/11 07:13:05;;;;;;;8.43;2.90;;;26.20;60.80;;;;;;5066172;28;20476;-78
2022/05/11 07:15:31;;;;;;;3.95;3.60;;;26.30;61.30;;;;;;5049186;28;20051;-77
2022/05/11 07:18:01;;;;;;;5.40;2.97;;;26.30;60.00;;;;;;5063176;28;20048;-78
2022/05/11 07:20:36;;;;;;;;;;;26.70;60.10;;;;;;5049017;28;20029;-76
2022/05/11 07:23:04;;;;;;;3.72;3.17;;;26.50;59.80;;;;;;5063839;28;19912;-76
2022/05/11 07:25:31;;;;;;;6.18;3.30;;;26.60;60.00;;;;;;5044166;28;20089;-79
2022/05/11 07:27:59;;;;;;;5.88;3.00;;;27.00;59.30;;;;;;5066138;28;20035;-77
2022/05/11 07:30:32;;;;;;;7.70;3.13;;;26.90;58.40;;;;;;5035116;28;20033;-76
2022/05/11 07:33:00;;;;;;;6.00;2.80;;;26.70;59.00;;;;;;5066145;28;20473;-76
2022/05/11 07:35:30;;;;;;;2.70;2.20;;;26.90;59.00;;;;;;5042039;28;20059;-77
2022/05/11 07:37:59;;;;;;;3.67;3.38;;;26.90;58.70;;;;;;5068024;28;20059;-75
2022/05/11 07:40:25;;;;;;;3.17;2.67;;;26.70;58.50;;;;;;5070252;28;20047;-76
2022/05/11 07:42:53;;;;;;;2.95;2.55;;;26.60;58.90;;;;;;5052803;28;20036;-82
2022/05/11 07:45:19;;;;;;;4.97;2.83;;;26.90;59.10;;;;;;5064482;28;20047;-75
2022/05/11 07:47:46;;;;;;;3.67;2.83;;;27.10;58.80;;;;;;5065928;28;20032;-75
2022/05/11 07:50:14;;;;;;;12.35;2.97;;;26.90;57.90;;;;;;5047182;28;20257;-76
2022/05/11 07:52:45;;;;;;;5.05;3.10;;;26.50;59.00;;;;;;5051578;28;20138;-77
2022/05/11 07:55:12;;;;;;;3.15;2.85;;;26.90;58.00;;;;;;5069509;28;20040;-74
2022/05/11 08:00:25;;;;;;;3.97;2.85;;;26.70;58.80;;;;;;5065127;28;20040;-76
2022/05/11 08:02:52;;;;;;;2.80;2.60;;;27.70;57.60;;;;;;5065726;28;20040;-76
2022/05/11 08:05:21;;;;;;;5.13;2.80;;;27.50;57.50;;;;;;5068513;28;20055;-76
2022/05/11 08:07:55;;;;;;;7.72;3.10;;;28.00;56.50;;;;;;5053939;28;20047;-77
2022/05/11 08:10:29;;;;;;;5.57;3.03;;;26.90;57.20;;;;;;5061805;28;20402;-77
2022/05/11 08:12:55;;;;;;;5.97;3.63;;;27.30;58.20;;;;;;5068421;28;20040;-76
2022/05/11 08:15:24;;;;;;;4.05;2.50;;;27.40;56.90;;;;;;5042900;28;20033;-76
2022/05/11 08:17:51;;;;;;;5.05;3.17;;;27.50;56.50;;;;;;5070382;28;20373;-78
2022/05/11 08:20:23;;;;;;;2.90;2.60;;;27.90;56.60;;;;;;5069237;28;20044;-76
2022/05/11 08:22:51;;;;;;;3.97;2.88;;;27.70;56.60;;;;;;5051795;28;20052;-78
2022/05/11 08:25:20;;;;;;;3.17;2.80;;;28.10;55.40;;;;;;5065022;28;20048;-77
2022/05/11 08:27:48;;;;;;;2.85;2.22;;;28.20;55.70;;;;;;5071085;28;20027;-77
2022/05/11 08:35:49;;;;;;;3.60;3.05;;;28.00;56.40;;;;;;5070343;28;20036;-77
2022/05/11 08:38:17;;;;;;;4.17;3.13;;;27.90;56.30;;;;;;5074854;28;20051;-74
2022/05/11 08:41:05;;;;;;;7.55;3.15;;;27.50;56.60;;;;;;5061904;28;20028;-75
2022/05/11 08:43:34;;;;;;;3.88;2.67;;;27.40;55.90;;;;;;5069815;28;20036;-78
2022/05/11 08:46:22;;;;;;;3.13;2.83;;;27.80;56.50;;;;;;5035067;28;20047;-75
2022/05/11 08:49:01;;;;;;;6.57;3.40;;;28.00;55.30;;;;;;5074450;28;20290;-80
2022/05/11 08:51:45;;;;;;;2.97;2.45;;;27.40;56.30;;;;;;5074522;28;20044;-77
2022/05/11 08:54:33;;;;;;;5.57;2.38;;;28.50;55.40;;;;;;5054054;28;20044;-74
2022/05/11 08:57:01;;;;;;;4.38;2.63;;;28.50;54.80;;;;;;5074226;28;20036;-76
2022/05/11 08:59:31;;;;;;;3.90;3.13;;;28.00;54.80;;;;;;5073589;28;20051;-76
2022/05/11 09:02:06;;;;;;;4.72;2.58;;;28.00;54.70;;;;;;5074048;28;20603;-77
2022/05/11 09:04:54;;;;;;;5.50;2.88;;;28.40;54.60;;;;;;5075031;28;20449;-77
2022/05/11 09:07:21;;;;;;;3.95;2.50;;;28.60;54.30;;;;;;5075210;28;20040;-74
2022/05/11 09:09:50;;;;;;;5.97;2.90;;;28.70;53.40;;;;;;5066363;28;20036;-77
2022/05/11 09:12:16;;;;;;;3.33;2.38;;;28.60;53.50;;;;;;5052965;28;20394;-74
2022/05/11 09:14:55;;;;;;;5.40;2.53;;;29.00;52.80;;;;;;5074457;28;20033;-74
2022/05/11 09:17:26;;;;;;;2.78;2.25;;;29.10;53.20;;;;;;5074397;28;20037;-75
2022/05/11 09:20:20;;;;;;;4.43;2.72;;;29.10;52.90;;;;;;5053602;28;20033;-80
2022/05/11 09:22:53;;;;;;;2.53;2.33;;;28.70;52.70;;;;;;5048547;28;20063;-77
2022/05/11 09:25:30;;;;;;;2.53;2.30;;;28.80;52.70;;;;;;5069289;28;20028;-76
2022/05/11 09:28:18;;;;;;;3.13;2.80;;;29.20;53.00;;;;;;5068834;28;20064;-75
2022/05/11 09:31:12;;;;;;;2.88;2.40;;;29.50;51.70;;;;;;5054472;28;20040;-78
2022/05/11 09:34:03;;;;;;;3.60;2.05;;;29.80;51.70;;;;;;5027697;28;20485;-75
2022/05/11 09:36:57;;;;;;;2.25;2.03;;;30.10;52.00;;;;;;5055041;28;20397;-75
2022/05/11 09:39:27;;;;;;;2.45;2.22;;;30.10;51.00;;;;;;5054002;28;20044;-77
2022/05/11 09:42:01;;;;;;;2.95;2.40;;;29.80;51.00;;;;;;5061745;28;20037;-79
2022/05/11 09:44:44;;;;;;;5.35;2.72;;;29.00;51.80;;;;;;5054492;28;20055;-77
2022/05/11 09:47:35;;;;;;;3.38;2.28;;;29.60;51.70;;;;;;5074275;28;20390;-74
2022/05/11 09:50:16;;;;;;;2.15;1.95;;;29.80;50.50;;;;;;5053825;28;20404;-78
2022/05/11 09:52:44;;;;;;;2.20;2.00;;;29.30;50.10;;;;;;5046068;28;20044;-76
2022/05/11 09:55:18;;;;;;;2.45;2.25;;;29.20;51.50;;;;;;5054938;28;20527;-78
2022/05/11 09:57:58;;;;;;;2.70;2.50;;;28.90;50.90;;;;;;5072885;28;20036;-75
2022/05/11 10:00:35;;;;;;;2.67;2.47;;;28.60;51.30;;;;;;5067722;28;20053;-77
2022/05/11 10:03:07;;;;;;;2.22;2.03;;;28.00;51.70;;;;;;5053342;28;20488;-75
2022/05/11 10:05:42;;;;;;;3.17;2.25;;;28.10;51.90;;;;;;5073424;28;20044;-75
2022/05/11 10:08:23;;;;;;;2.90;2.10;;;28.60;51.60;;;;;;5073303;28;20036;-76
2022/05/11 10:11:18;;;;;;;4.15;2.38;;;28.30;51.50;;;;;;5071995;28;20039;-76
2022/05/11 10:22:42;;;;;;;3.70;2.70;;;28.20;51.90;;;;;;5072646;28;20025;-77
2022/05/11 10:25:35;;;;;;;5.60;2.47;;;28.40;51.70;;;;;;5072863;28;20029;-76
2022/05/11 10:28:20;;;;;;;3.13;2.50;;;28.50;51.10;;;;;;5073885;28;20032;-76
2022/05/11 10:31:24;;;;;;;5.72;2.00;;;28.60;51.00;;;;;;5053670;28;20037;-76
2022/05/11 10:34:08;;;;;;;2.92;2.55;;;28.40;50.80;;;;;;5073217;28;20028;-77
2022/05/11 10:36:50;;;;;;;2.88;2.47;;;28.20;51.80;;;;;;5067432;28;20028;-75
2022/05/11 10:39:47;;;;;;;2.47;2.10;;;28.20;51.20;;;;;;5071324;28;20048;-76
2022/05/11 10:42:25;;;;;;;6.20;2.33;;;28.10;51.20;;;;;;5050247;28;20037;-76
2022/05/11 10:45:14;;;;;;;2.25;2.05;;;28.40;50.70;;;;;;5071799;28;20052;-80
2022/05/11 10:48:03;;;;;;;2.65;2.35;;;28.50;50.80;;;;;;5067627;28;20055;-77
2022/05/11 10:50:54;;;;;;;5.35;2.65;;;28.50;50.20;;;;;;5050802;28;20025;-76
2022/05/11 10:53:23;;;;;;;3.28;1.95;;;28.40;50.00;;;;;;5072718;28;20032;-75
2022/05/11 10:56:10;;;;;;;3.88;2.67;;;28.80;50.10;;;;;;5072320;28;20042;-77
2022/05/11 10:59:21;;;;;;;2.85;2.10;;;28.90;49.70;;;;;;5048315;28;20029;-75
2022/05/11 11:01:59;;;;;;;3.80;2.50;;;28.80;49.20;;;;;;4990606;28;20418;-75
2022/05/11 11:04:31;;;;;;;5.38;2.45;;;28.60;49.80;;;;;;5051555;28;20053;-76
2022/05/11 11:07:13;;;;;;;2.67;2.20;;;28.70;49.60;;;;;;5061425;28;20040;-76
2022/05/11 11:10:02;;;;;;;7.05;2.70;;;29.20;49.10;;;;;;5066928;28;20032;-76
2022/05/11 11:12:48;;;;;;;;;;;29.10;48.90;;;;;;5052947;28;20043;-75
2022/05/11 11:15:17;;;;;;;2.58;1.88;;;29.20;49.20;;;;;;5040615;28;19909;-76
2022/05/11 11:17:46;;;;;;;5.03;1.90;;;29.20;48.60;;;;;;5064273;28;20029;-76
2022/05/11 11:20:17;;;;;;;2.72;2.42;;;29.10;48.70;;;;;;5071190;28;20055;-76
2022/05/11 11:23:15;;;;;;;3.65;2.40;;;29.10;48.70;;;;;;5072339;28;20058;-76
2022/05/11 11:25:58;;;;;;;5.55;2.35;;;29.10;49.10;;;;;;5070709;28;20501;-76
2022/05/11 11:28:50;;;;;;;2.58;2.38;;;29.60;48.50;;;;;;5068134;28;20025;-75
2022/05/11 11:31:24;;;;;;;3.45;2.63;;;29.50;48.40;;;;;;5068836;28;20040;-76
2022/05/11 11:33:56;;;;;;;2.83;2.50;;;29.10;48.90;;;;;;5049508;28;20028;-77
2022/05/11 11:36:28;;;;;;;2.90;2.70;;;29.40;49.20;;;;;;5053418;28;20029;-76
2022/05/11 11:38:58;;;;;;;4.20;2.08;;;29.40;49.50;;;;;;5070208;28;20063;-76
2022/05/11 11:41:42;;;;;;;3.45;2.85;;;29.20;49.10;;;;;;5071785;28;20492;-75
2022/05/11 11:44:21;;;;;;;3.10;2.60;;;29.20;48.30;;;;;;5064945;28;20028;-76
2022/05/11 11:46:50;;;;;;;3.25;2.95;;;29.00;48.80;;;;;;5066486;28;20127;-75
2022/05/11 11:49:19;;;;;;;4.60;2.08;;;29.00;49.60;;;;;;5070079;28;20036;-76
2022/05/11 11:51:56;;;;;;;3.90;3.17;;;29.20;49.50;;;;;;5044973;28;20470;-75
2022/05/11 11:54:37;;;;;;;2.60;2.40;;;29.60;49.20;;;;;;5071489;28;20036;-75
2022/05/11 11:57:22;;;;;;;2.83;2.45;;;29.50;48.80;;;;;;5072256;28;20028;-76
2022/05/11 11:59:50;;;;;;;4.82;2.80;;;29.50;48.70;;;;;;5068713;28;20020;-76
2022/05/11 12:02:18;;;;;;;2.92;2.22;;;29.90;49.40;;;;;;5067874;28;20056;-76
2022/05/11 12:04:57;;;;;;;2.40;2.20;;;30.20;48.10;;;;;;5067147;28;20377;-77
2022/05/11 12:16:06;;;;;;;4.65;2.65;;;30.00;48.10;;;;;;5067524;28;20055;-77
2022/05/11 12:18:36;;;;;;;4.00;2.33;;;30.10;47.90;;;;;;5069961;28;20033;-77
2022/05/11 12:21:24;;;;;;;6.75;2.15;;;29.60;45.80;;;;;;5070730;28;20043;-77
2022/05/11 12:23:51;;;;;;;3.97;2.15;;;29.30;46.20;;;;;;5056409;28;20045;-77
2022/05/11 12:26:28;;;;;;;3.33;2.08;;;29.60;46.50;;;;;;5065259;28;20032;-77
2022/05/11 12:31:54;;;;;;;3.83;2.55;;;29.60;46.00;;;;;;5066803;28;20418;-76
2022/05/11 12:34:21;;;;;;;;;;;29.90;45.10;;;;;;5053115;28;20044;-76
2022/05/11 12:36:49;;;;;;;2.45;1.50;;;30.10;44.60;;;;;;5071590;28;20269;-76
2022/05/11 12:39:28;;;;;;;1.80;1.45;;;30.40;42.80;;;;;;5069607;28;20060;-74
2022/05/11 12:41:56;;;;;;;;;;;30.40;42.50;;;;;;5070363;28;20492;-74
2022/05/11 12:44:29;;;;;;;3.30;1.33;;;30.10;42.70;;;;;;5046833;28;20276;-74
2022/05/11 12:46:58;;;;;;;3.55;1.70;;;30.10;42.70;;;;;;5071399;28;20032;-75
2022/05/11 12:49:26;;;;;;;4.20;1.90;;;30.10;43.00;;;;;;5068995;28;20024;-75
2022/05/11 12:52:03;;;;;;;3.15;1.52;;;30.20;41.40;;;;;;5070261;28;20039;-79
2022/05/11 12:54:31;;;;;;;3.22;1.48;;;30.10;41.20;;;;;;5065520;28;20044;-76
2022/05/11 12:57:12;;;;;;;3.00;1.60;;;30.10;39.60;;;;;;5069852;28;20036;-76
2022/05/11 12:59:39;;;;;;;1.58;1.00;;;30.30;39.80;;;;;;5051643;28;20048;-76
2022/05/11 13:02:14;;;;;;;3.10;1.52;;;30.40;39.40;;;;;;5064846;28;20398;-75
2022/05/11 13:04:55;;;;;;;2.25;1.33;;;30.30;38.80;;;;;;5066025;28;20039;-76
2022/05/11 13:07:24;;;;;;;1.98;1.20;;;30.30;39.50;;;;;;5064302;28;20044;-76
2022/05/11 13:09:55;;;;;;;3.08;1.60;;;30.20;39.50;;;;;;5067375;28;20024;-76
2022/05/11 13:12:22;;;;;;;3.05;1.38;;;30.10;39.80;;;;;;5070763;28;20040;-75
2022/05/11 13:14:52;;;;;;;1.75;1.40;;;30.00;39.40;;;;;;5046431;28;20051;-76
2022/05/11 13:17:24;;;;;;;5.20;1.48;;;30.10;39.60;;;;;;5046644;28;20063;-76
2022/05/11 13:19:58;;;;;;;1.42;1.30;;;30.10;39.60;;;;;;5072009;28;20055;-75
2022/05/11 13:22:26;;;;;;;2.95;1.80;;;30.10;39.60;;;;;;5074575;28;20032;-76
2022/05/11 13:24:56;;;;;;;3.28;1.98;;;30.10;39.70;;;;;;5073737;28;20052;-76
2022/05/11 13:27:39;;;;;;;2.10;1.48;;;30.10;39.70;;;;;;5068158;28;20379;-76
2022/05/11 13:30:20;;;;;;;3.60;1.48;;;30.30;39.30;;;;;;5068053;28;20033;-76
2022/05/11 13:32:59;;;;;;;4.97;1.60;;;30.30;39.10;;;;;;5069901;28;20032;-76
2022/05/11 13:35:33;;;;;;;2.23;1.57;;;30.40;39.20;;;;;;5056466;28;20045;-76
2022/05/11 13:38:08;;;;;;;4.05;1.85;;;30.20;38.70;;;;;;5073993;28;20492;-76
2022/05/11 13:40:38;;;;;;;3.08;1.30;;;30.30;38.70;;;;;;5073086;28;20112;-76
2022/05/11 13:43:36;;;;;;;1.88;1.25;;;30.40;39.80;;;;;;5073173;28;20036;-76
2022/05/11 13:46:12;;;;;;;1.55;1.27;;;30.40;38.40;;;;;;5070211;28;20036;-76
2022/05/11 13:48:44;;;;;;;3.08;1.45;;;30.40;38.70;;;;;;5071962;28;20052;-77
2022/05/11 13:51:20;;;;;;;2.42;1.50;;;30.70;38.20;;;;;;5073615;28;20032;-76
2022/05/11 13:53:49;;;;;;;2.05;1.58;;;30.90;37.90;;;;;;5074043;28;20028;-75